Stonewall, Louisiana
Current Conditions -  °F | °C
As of 5:56 AM on Sunday 21 Dec 2014 (Local Time) from KSHV Reporting Station
Light Fog Light Fog  
Wind Chill: 35°   Ceiling: 4600
Heat Index: 35°   Visibility: 5mi
Dew Point: 34°   Wind: 0mph
Humidity: 96%   Direction: NA
Pressure: 30.15"   Gusts: NA
Location:  32.28°N, 93.82°W
Report Text: KSHV 211156Z 00000KT 5SM BCFG BKN046 02/01 A3015 RMK AO2 SLP209 T00170011 10044 20011 58004 $
Loading
Personal Weather Stations






























Interactive Weather Map New forecast layout! Learn more

10-Day Weather Forecast

Advertisements
Track Severe Weather on mobile